Terminal Aerodrome Forecast
Issued by NWS Cleveland, OH

Home | Current Version | Previous Version | Text Only | Print | Product List | Glossary Off
Versions: 1 2 3 4 5 6 7 8 9 10 11 12 13 14 15 16 17 18 19 20 21

000
FTUS41 KCLE 240700 AAA
TAFMFD
TAF AMD
KMFD 240723Z 2407/2506 19020G35KT P6SM SCT012 OVC025
      TEMPO 2409/2412 5SM -SHRA OVC012
     FM241700 23028G40KT P6SM OVC030
      TEMPO 2417/2419 3SM -SHRA
     FM250000 23020G32KT P6SM OVC035=

USA.gov is the U.S. government's official web portal to all federal, state and local government web resources and services.